Terminal Aerodrome Forecast
Issued by NWS

Home | Current Version | Previous Version | Text Only | Print | Product List | Glossary On
Versions: 1 2 3 4 5 6 7 8 9 10 11 12 13 14 15 16 17 18 19 20 21 22 23 24 25 26
000
FTUS46 KLOX 250616 AAA
TAFOXR
TAF AMD
KOXR 250616Z 2506/2606 26007KT 4SM BR OVC004
      TEMPO 2506/2509 1SM BR OVC002
     FM250900 VRB05KT 2SM BR OVC002
     FM251600 24007KT 4SM BR BKN008
     FM251900 26010KT P6SM SKC
     FM260500 VRB05KT 4SM BR BKN003=

USA.gov is the U.S. government's official web portal to all federal, state and local government web resources and services.